sensor_id;sensor_type;location;lat;lon;timestamp;temperature;humidity
41427;DHT22;27171;51.812;19.514;2022-11-23T00:00:28;2.20;99.90
41427;DHT22;27171;51.812;19.514;2022-11-23T00:03:29;2.20;99.90
41427;DHT22;27171;51.812;19.514;2022-11-23T00:06:30;2.20;99.90
41427;DHT22;27171;51.812;19.514;2022-11-23T00:09:31;2.20;99.90
41427;DHT22;27171;51.812;19.514;2022-11-23T00:12:32;2.20;99.90
41427;DHT22;27171;51.812;19.514;2022-11-23T00:15:33;2.20;99.90
41427;DHT22;27171;51.812;19.514;2022-11-23T00:18:34;2.20;99.90
41427;DHT22;27171;51.812;19.514;2022-11-23T00:21:35;2.20;99.90
41427;DHT22;27171;51.812;19.514;2022-11-23T00:24:35;2.20;99.90
41427;DHT22;27171;51.812;19.514;2022-11-23T00:27:36;2.20;99.90
41427;DHT22;27171;51.812;19.514;2022-11-23T00:30:37;2.20;99.90
41427;DHT22;27171;51.812;19.514;2022-11-23T00:33:39;2.20;99.90
41427;DHT22;27171;51.812;19.514;2022-11-23T00:36:40;2.20;99.90
41427;DHT22;27171;51.812;19.514;2022-11-23T00:39:41;2.20;99.90
41427;DHT22;27171;51.812;19.514;2022-11-23T00:42:42;2.20;99.90
41427;DHT22;27171;51.812;19.514;2022-11-23T00:45:43;2.20;99.90
41427;DHT22;27171;51.812;19.514;2022-11-23T00:48:45;2.20;99.90
41427;DHT22;27171;51.812;19.514;2022-11-23T00:51:47;2.20;99.90
41427;DHT22;27171;51.812;19.514;2022-11-23T00:54:48;2.10;99.90
41427;DHT22;27171;51.812;19.514;2022-11-23T00:57:49;2.20;99.90
41427;DHT22;27171;51.812;19.514;2022-11-23T01:00:50;2.10;99.90
41427;DHT22;27171;51.812;19.514;2022-11-23T01:04:01;2.10;99.90
41427;DHT22;27171;51.812;19.514;2022-11-23T01:07:04;2.20;99.90
41427;DHT22;27171;51.812;19.514;2022-11-23T01:10:06;2.10;99.90
41427;DHT22;27171;51.812;19.514;2022-11-23T01:13:07;2.20;99.90
41427;DHT22;27171;51.812;19.514;2022-11-23T01:16:22;2.20;99.90
41427;DHT22;27171;51.812;19.514;2022-11-23T01:19:23;2.20;99.90
41427;DHT22;27171;51.812;19.514;2022-11-23T01:22:24;2.20;99.90
41427;DHT22;27171;51.812;19.514;2022-11-23T01:25:25;2.20;99.90
41427;DHT22;27171;51.812;19.514;2022-11-23T01:28:26;2.20;99.90
41427;DHT22;27171;51.812;19.514;2022-11-23T01:31:28;2.20;99.90
41427;DHT22;27171;51.812;19.514;2022-11-23T01:34:29;2.20;99.90
41427;DHT22;27171;51.812;19.514;2022-11-23T01:37:33;2.20;99.90
41427;DHT22;27171;51.812;19.514;2022-11-23T01:40:43;2.10;99.90
41427;DHT22;27171;51.812;19.514;2022-11-23T01:43:45;2.20;99.90
41427;DHT22;27171;51.812;19.514;2022-11-23T01:46:46;2.10;99.90
41427;DHT22;27171;51.812;19.514;2022-11-23T01:49:51;2.10;99.90
41427;DHT22;27171;51.812;19.514;2022-11-23T01:52:52;2.10;99.90
41427;DHT22;27171;51.812;19.514;2022-11-23T01:55:57;2.10;99.90
41427;DHT22;27171;51.812;19.514;2022-11-23T01:59:01;2.10;99.90
41427;DHT22;27171;51.812;19.514;2022-11-23T02:02:05;2.10;99.90
41427;DHT22;27171;51.812;19.514;2022-11-23T02:05:07;2.10;99.90
41427;DHT22;27171;51.812;19.514;2022-11-23T02:08:09;2.10;99.90
41427;DHT22;27171;51.812;19.514;2022-11-23T02:11:13;2.10;99.90
41427;DHT22;27171;51.812;19.514;2022-11-23T02:14:15;2.00;99.90
41427;DHT22;27171;51.812;19.514;2022-11-23T02:17:16;2.00;99.90
41427;DHT22;27171;51.812;19.514;2022-11-23T02:20:18;2.00;99.90
41427;DHT22;27171;51.812;19.514;2022-11-23T02:26:26;1.90;99.90
41427;DHT22;27171;51.812;19.514;2022-11-23T02:29:28;1.90;99.90
41427;DHT22;27171;51.812;19.514;2022-11-23T02:32:29;1.90;99.90
41427;DHT22;27171;51.812;19.514;2022-11-23T02:35:32;1.90;99.90
41427;DHT22;27171;51.812;19.514;2022-11-23T02:38:33;1.90;99.90
41427;DHT22;27171;51.812;19.514;2022-11-23T02:41:54;1.90;99.90
41427;DHT22;27171;51.812;19.514;2022-11-23T02:44:59;2.00;99.90
41427;DHT22;27171;51.812;19.514;2022-11-23T02:48:04;2.00;99.90
41427;DHT22;27171;51.812;19.514;2022-11-23T02:51:05;2.00;99.90
41427;DHT22;27171;51.812;19.514;2022-11-23T02:54:07;2.00;99.90
41427;DHT22;27171;51.812;19.514;2022-11-23T02:57:10;2.00;99.90
41427;DHT22;27171;51.812;19.514;2022-11-23T03:00:13;2.00;99.90
41427;DHT22;27171;51.812;19.514;2022-11-23T03:03:16;2.00;99.90
41427;DHT22;27171;51.812;19.514;2022-11-23T03:06:17;2.00;99.90
41427;DHT22;27171;51.812;19.514;2022-11-23T03:09:18;2.00;99.90
41427;DHT22;27171;51.812;19.514;2022-11-23T03:12:20;1.90;99.90
41427;DHT22;27171;51.812;19.514;2022-11-23T03:15:22;1.90;99.90
41427;DHT22;27171;51.812;19.514;2022-11-23T03:18:24;2.00;99.90
41427;DHT22;27171;51.812;19.514;2022-11-23T03:21:26;2.00;99.90
41427;DHT22;27171;51.812;19.514;2022-11-23T03:24:27;2.00;99.90
41427;DHT22;27171;51.812;19.514;2022-11-23T03:27:30;2.00;99.90
41427;DHT22;27171;51.812;19.514;2022-11-23T03:30:31;2.00;99.90
41427;DHT22;27171;51.812;19.514;2022-11-23T03:33:33;2.00;99.90
41427;DHT22;27171;51.812;19.514;2022-11-23T03:36:34;2.00;99.90
41427;DHT22;27171;51.812;19.514;2022-11-23T03:39:35;2.00;99.90
41427;DHT22;27171;51.812;19.514;2022-11-23T03:42:38;2.00;99.90
41427;DHT22;27171;51.812;19.514;2022-11-23T03:45:40;2.00;99.90
41427;DHT22;27171;51.812;19.514;2022-11-23T03:48:42;2.10;99.90
41427;DHT22;27171;51.812;19.514;2022-11-23T03:51:43;2.10;99.90
41427;DHT22;27171;51.812;19.514;2022-11-23T03:54:44;2.10;99.90
41427;DHT22;27171;51.812;19.514;2022-11-23T03:57:47;2.10;99.90
41427;DHT22;27171;51.812;19.514;2022-11-23T04:00:49;2.00;99.90
41427;DHT22;27171;51.812;19.514;2022-11-23T04:03:51;2.00;99.90
41427;DHT22;27171;51.812;19.514;2022-11-23T04:07:06;2.10;99.90
41427;DHT22;27171;51.812;19.514;2022-11-23T04:10:17;2.00;99.90
41427;DHT22;27171;51.812;19.514;2022-11-23T04:13:42;2.00;99.90
41427;DHT22;27171;51.812;19.514;2022-11-23T04:16:43;2.00;99.90
41427;DHT22;27171;51.812;19.514;2022-11-23T04:19:44;2.00;99.90
41427;DHT22;27171;51.812;19.514;2022-11-23T04:22:47;2.00;99.90
41427;DHT22;27171;51.812;19.514;2022-11-23T04:25:48;2.10;99.90
41427;DHT22;27171;51.812;19.514;2022-11-23T04:28:50;2.10;99.90
41427;DHT22;27171;51.812;19.514;2022-11-23T04:31:51;2.10;99.90
41427;DHT22;27171;51.812;19.514;2022-11-23T04:34:53;2.10;99.90
41427;DHT22;27171;51.812;19.514;2022-11-23T04:37:55;2.10;99.90
41427;DHT22;27171;51.812;19.514;2022-11-23T04:41:00;2.10;99.90
41427;DHT22;27171;51.812;19.514;2022-11-23T04:44:01;2.10;99.90
41427;DHT22;27171;51.812;19.514;2022-11-23T04:47:02;2.00;99.90
41427;DHT22;27171;51.812;19.514;2022-11-23T04:50:05;2.10;99.90
41427;DHT22;27171;51.812;19.514;2022-11-23T04:53:06;2.00;99.90
41427;DHT22;27171;51.812;19.514;2022-11-23T04:56:14;2.00;99.90
41427;DHT22;27171;51.812;19.514;2022-11-23T04:59:17;2.00;99.90
41427;DHT22;27171;51.812;19.514;2022-11-23T05:02:19;2.00;99.90
41427;DHT22;27171;51.812;19.514;2022-11-23T05:05:23;2.00;99.90
41427;DHT22;27171;51.812;19.514;2022-11-23T05:08:24;2.00;99.90
41427;DHT22;27171;51.812;19.514;2022-11-23T05:11:41;1.90;99.90
41427;DHT22;27171;51.812;19.514;2022-11-23T05:14:44;1.90;99.90
41427;DHT22;27171;51.812;19.514;2022-11-23T05:17:48;1.90;99.90
41427;DHT22;27171;51.812;19.514;2022-11-23T05:20:57;1.90;99.90
41427;DHT22;27171;51.812;19.514;2022-11-23T05:23:58;1.90;99.90
41427;DHT22;27171;51.812;19.514;2022-11-23T05:27:00;1.90;99.90
41427;DHT22;27171;51.812;19.514;2022-11-23T05:30:02;1.90;99.90
41427;DHT22;27171;51.812;19.514;2022-11-23T05:33:05;1.90;99.90
41427;DHT22;27171;51.812;19.514;2022-11-23T05:36:06;1.90;99.90
41427;DHT22;27171;51.812;19.514;2022-11-23T05:39:11;1.90;99.90
41427;DHT22;27171;51.812;19.514;2022-11-23T05:42:13;1.90;99.90
41427;DHT22;27171;51.812;19.514;2022-11-23T05:45:16;1.90;99.90
41427;DHT22;27171;51.812;19.514;2022-11-23T05:48:21;1.90;99.90
41427;DHT22;27171;51.812;19.514;2022-11-23T05:51:31;1.80;99.90
41427;DHT22;27171;51.812;19.514;2022-11-23T05:54:33;1.80;99.90
41427;DHT22;27171;51.812;19.514;2022-11-23T05:57:43;1.70;99.90
41427;DHT22;27171;51.812;19.514;2022-11-23T06:00:45;1.70;99.90
41427;DHT22;27171;51.812;19.514;2022-11-23T06:03:51;1.70;99.90
41427;DHT22;27171;51.812;19.514;2022-11-23T06:06:52;1.70;99.90
41427;DHT22;27171;51.812;19.514;2022-11-23T06:09:54;1.60;99.90
41427;DHT22;27171;51.812;19.514;2022-11-23T06:13:01;1.60;99.90
41427;DHT22;27171;51.812;19.514;2022-11-23T06:16:03;1.60;99.90
41427;DHT22;27171;51.812;19.514;2022-11-23T06:19:17;1.50;99.90
41427;DHT22;27171;51.812;19.514;2022-11-23T06:22:18;1.50;99.90
41427;DHT22;27171;51.812;19.514;2022-11-23T06:25:30;1.50;99.90
41427;DHT22;27171;51.812;19.514;2022-11-23T06:28:47;1.50;99.90
41427;DHT22;27171;51.812;19.514;2022-11-23T06:31:50;1.50;99.90
41427;DHT22;27171;51.812;19.514;2022-11-23T06:34:52;1.40;99.90
41427;DHT22;27171;51.812;19.514;2022-11-23T06:37:52;1.40;99.90
41427;DHT22;27171;51.812;19.514;2022-11-23T06:41:00;1.40;99.90
41427;DHT22;27171;51.812;19.514;2022-11-23T06:44:03;1.30;99.90
41427;DHT22;27171;51.812;19.514;2022-11-23T06:47:17;1.30;99.90
41427;DHT22;27171;51.812;19.514;2022-11-23T06:50:18;1.30;99.90
41427;DHT22;27171;51.812;19.514;2022-11-23T06:53:21;1.30;99.90
41427;DHT22;27171;51.812;19.514;2022-11-23T06:56:29;1.30;99.90
41427;DHT22;27171;51.812;19.514;2022-11-23T06:59:30;1.30;99.90
41427;DHT22;27171;51.812;19.514;2022-11-23T07:02:32;1.30;99.90
41427;DHT22;27171;51.812;19.514;2022-11-23T07:05:34;1.30;99.90
41427;DHT22;27171;51.812;19.514;2022-11-23T07:08:38;1.30;99.90
41427;DHT22;27171;51.812;19.514;2022-11-23T07:11:51;1.30;99.90
41427;DHT22;27171;51.812;19.514;2022-11-23T07:14:52;1.40;99.90
41427;DHT22;27171;51.812;19.514;2022-11-23T07:17:53;1.40;99.90
41427;DHT22;27171;51.812;19.514;2022-11-23T07:20:57;1.40;99.90
41427;DHT22;27171;51.812;19.514;2022-11-23T07:23:58;1.40;99.90
41427;DHT22;27171;51.812;19.514;2022-11-23T07:26:59;1.40;99.90
41427;DHT22;27171;51.812;19.514;2022-11-23T07:30:00;1.40;99.90
41427;DHT22;27171;51.812;19.514;2022-11-23T07:33:10;1.40;99.90
41427;DHT22;27171;51.812;19.514;2022-11-23T07:36:13;1.40;99.90
41427;DHT22;27171;51.812;19.514;2022-11-23T07:39:16;1.40;99.90
41427;DHT22;27171;51.812;19.514;2022-11-23T07:42:17;1.40;99.90
41427;DHT22;27171;51.812;19.514;2022-11-23T07:45:18;1.50;99.90
41427;DHT22;27171;51.812;19.514;2022-11-23T07:48:19;1.40;99.90
41427;DHT22;27171;51.812;19.514;2022-11-23T07:51:21;1.50;99.90
41427;DHT22;27171;51.812;19.514;2022-11-23T07:54:21;1.50;99.90
41427;DHT22;27171;51.812;19.514;2022-11-23T07:57:23;1.50;99.90
41427;DHT22;27171;51.812;19.514;2022-11-23T08:00:24;1.50;99.90
41427;DHT22;27171;51.812;19.514;2022-11-23T08:03:25;1.60;99.90
41427;DHT22;27171;51.812;19.514;2022-11-23T08:06:26;1.60;99.90
41427;DHT22;27171;51.812;19.514;2022-11-23T08:09:27;1.70;99.90
41427;DHT22;27171;51.812;19.514;2022-11-23T08:12:28;1.60;99.90
41427;DHT22;27171;51.812;19.514;2022-11-23T08:15:29;1.70;99.90
41427;DHT22;27171;51.812;19.514;2022-11-23T08:18:30;1.70;99.90
41427;DHT22;27171;51.812;19.514;2022-11-23T08:21:31;1.70;99.90
41427;DHT22;27171;51.812;19.514;2022-11-23T08:24:32;1.70;99.90
41427;DHT22;27171;51.812;19.514;2022-11-23T08:27:33;1.70;99.90
41427;DHT22;27171;51.812;19.514;2022-11-23T08:30:34;1.70;99.90
41427;DHT22;27171;51.812;19.514;2022-11-23T08:33:35;1.70;99.90
41427;DHT22;27171;51.812;19.514;2022-11-23T08:36:36;1.70;99.90
41427;DHT22;27171;51.812;19.514;2022-11-23T08:39:37;1.70;99.90
41427;DHT22;27171;51.812;19.514;2022-11-23T08:42:38;1.80;99.90
41427;DHT22;27171;51.812;19.514;2022-11-23T08:45:39;1.80;99.90
41427;DHT22;27171;51.812;19.514;2022-11-23T08:48:40;1.90;99.90
41427;DHT22;27171;51.812;19.514;2022-11-23T08:51:42;1.90;99.90
41427;DHT22;27171;51.812;19.514;2022-11-23T08:54:43;2.00;99.90
41427;DHT22;27171;51.812;19.514;2022-11-23T08:57:44;2.00;99.90
41427;DHT22;27171;51.812;19.514;2022-11-23T09:00:44;2.00;99.90
41427;DHT22;27171;51.812;19.514;2022-11-23T09:03:46;2.00;99.90
41427;DHT22;27171;51.812;19.514;2022-11-23T09:06:47;2.10;99.90
41427;DHT22;27171;51.812;19.514;2022-11-23T09:09:47;2.10;99.90
41427;DHT22;27171;51.812;19.514;2022-11-23T09:12:48;2.10;99.90
41427;DHT22;27171;51.812;19.514;2022-11-23T09:15:49;2.10;99.90
41427;DHT22;27171;51.812;19.514;2022-11-23T09:18:53;2.20;99.90
41427;DHT22;27171;51.812;19.514;2022-11-23T09:21:55;2.20;99.90
41427;DHT22;27171;51.812;19.514;2022-11-23T09:24:56;2.20;99.90
41427;DHT22;27171;51.812;19.514;2022-11-23T09:27:57;2.30;99.90
41427;DHT22;27171;51.812;19.514;2022-11-23T09:31:02;2.40;99.90
41427;DHT22;27171;51.812;19.514;2022-11-23T09:34:04;2.40;99.90
41427;DHT22;27171;51.812;19.514;2022-11-23T09:37:05;2.50;99.90
41427;DHT22;27171;51.812;19.514;2022-11-23T09:40:06;2.60;99.90
41427;DHT22;27171;51.812;19.514;2022-11-23T09:53:08;2.90;99.90
41427;DHT22;27171;51.812;19.514;2022-11-23T09:56:22;3.00;99.90
41427;DHT22;27171;51.812;19.514;2022-11-23T10:02:35;3.20;99.90
41427;DHT22;27171;51.812;19.514;2022-11-23T10:05:39;3.30;99.90
41427;DHT22;27171;51.812;19.514;2022-11-23T10:21:26;4.40;99.90
41427;DHT22;27171;51.812;19.514;2022-11-23T10:24:43;4.50;99.90
41427;DHT22;27171;51.812;19.514;2022-11-23T10:27:48;4.60;99.90
41427;DHT22;27171;51.812;19.514;2022-11-23T10:31:14;4.60;99.90
41427;DHT22;27171;51.812;19.514;2022-11-23T10:34:20;4.70;99.90
41427;DHT22;27171;51.812;19.514;2022-11-23T10:37:23;4.90;99.90
41427;DHT22;27171;51.812;19.514;2022-11-23T10:40:25;5.10;99.90
41427;DHT22;27171;51.812;19.514;2022-11-23T10:51:15;5.60;99.90
41427;DHT22;27171;51.812;19.514;2022-11-23T10:54:32;5.70;99.90
41427;DHT22;27171;51.812;19.514;2022-11-23T10:57:42;5.70;99.90
41427;DHT22;27171;51.812;19.514;2022-11-23T11:00:44;5.70;99.90
41427;DHT22;27171;51.812;19.514;2022-11-23T11:03:45;5.70;99.90
41427;DHT22;27171;51.812;19.514;2022-11-23T11:06:46;5.70;99.90
41427;DHT22;27171;51.812;19.514;2022-11-23T11:09:50;5.60;99.90
41427;DHT22;27171;51.812;19.514;2022-11-23T11:12:51;5.60;99.90
41427;DHT22;27171;51.812;19.514;2022-11-23T11:15:53;5.50;99.90
41427;DHT22;27171;51.812;19.514;2022-11-23T11:18:55;5.50;99.90
41427;DHT22;27171;51.812;19.514;2022-11-23T11:21:58;5.50;99.90
41427;DHT22;27171;51.812;19.514;2022-11-23T11:25:01;5.40;99.90
41427;DHT22;27171;51.812;19.514;2022-11-23T11:28:14;5.40;99.90
41427;DHT22;27171;51.812;19.514;2022-11-23T11:34:44;5.20;99.90
41427;DHT22;27171;51.812;19.514;2022-11-23T11:37:50;5.10;99.90
41427;DHT22;27171;51.812;19.514;2022-11-23T11:40:54;4.90;99.90
41427;DHT22;27171;51.812;19.514;2022-11-23T11:44:08;4.90;99.90
41427;DHT22;27171;51.812;19.514;2022-11-23T11:47:29;4.80;99.90
41427;DHT22;27171;51.812;19.514;2022-11-23T11:50:38;4.70;99.90
41427;DHT22;27171;51.812;19.514;2022-11-23T12:00:33;4.70;99.90
41427;DHT22;27171;51.812;19.514;2022-11-23T12:03:49;4.80;99.90
41427;DHT22;27171;51.812;19.514;2022-11-23T12:13:42;4.60;99.90
41427;DHT22;27171;51.812;19.514;2022-11-23T12:23:28;4.30;99.90
41427;DHT22;27171;51.812;19.514;2022-11-23T12:33:28;4.20;99.90
41427;DHT22;27171;51.812;19.514;2022-11-23T12:40:21;4.20;99.90
41427;DHT22;27171;51.812;19.514;2022-11-23T12:43:31;4.10;99.90
41427;DHT22;27171;51.812;19.514;2022-11-23T12:46:41;4.00;99.90
41427;DHT22;27171;51.812;19.514;2022-11-23T12:56:32;4.00;99.90
41427;DHT22;27171;51.812;19.514;2022-11-23T13:22:29;3.80;99.90
41427;DHT22;27171;51.812;19.514;2022-11-23T13:25:31;3.70;99.90
41427;DHT22;27171;51.812;19.514;2022-11-23T13:28:32;3.70;99.90
41427;DHT22;27171;51.812;19.514;2022-11-23T13:31:33;3.60;99.90
41427;DHT22;27171;51.812;19.514;2022-11-23T13:34:45;3.60;99.90
41427;DHT22;27171;51.812;19.514;2022-11-23T13:40:57;3.50;99.90
41427;DHT22;27171;51.812;19.514;2022-11-23T13:43:58;3.40;99.90
41427;DHT22;27171;51.812;19.514;2022-11-23T13:50:18;3.40;99.90
41427;DHT22;27171;51.812;19.514;2022-11-23T13:53:37;3.40;99.90
41427;DHT22;27171;51.812;19.514;2022-11-23T13:56:41;3.40;99.90
41427;DHT22;27171;51.812;19.514;2022-11-23T13:59:43;3.30;99.90
41427;DHT22;27171;51.812;19.514;2022-11-23T14:02:44;3.30;99.90
41427;DHT22;27171;51.812;19.514;2022-11-23T14:05:55;3.30;99.90
41427;DHT22;27171;51.812;19.514;2022-11-23T14:13:30;3.20;99.90
41427;DHT22;27171;51.812;19.514;2022-11-23T14:16:00;3.20;99.90
41427;DHT22;27171;51.812;19.514;2022-11-23T14:32:44;3.00;99.90
41427;DHT22;27171;51.812;19.514;2022-11-23T14:42:28;2.80;99.90
41427;DHT22;27171;51.812;19.514;2022-11-23T14:45:32;2.80;99.90
41427;DHT22;27171;51.812;19.514;2022-11-23T14:48:35;2.80;99.90
41427;DHT22;27171;51.812;19.514;2022-11-23T14:51:41;2.70;99.90
41427;DHT22;27171;51.812;19.514;2022-11-23T14:54:49;2.70;99.90
41427;DHT22;27171;51.812;19.514;2022-11-23T14:57:57;2.70;99.90
41427;DHT22;27171;51.812;19.514;2022-11-23T15:01:00;2.60;99.90
41427;DHT22;27171;51.812;19.514;2022-11-23T15:04:16;2.60;99.90
41427;DHT22;27171;51.812;19.514;2022-11-23T15:07:26;2.60;99.90
41427;DHT22;27171;51.812;19.514;2022-11-23T15:10:39;2.60;99.90
41427;DHT22;27171;51.812;19.514;2022-11-23T15:13:45;2.60;99.90
41427;DHT22;27171;51.812;19.514;2022-11-23T15:16:47;2.50;99.90
41427;DHT22;27171;51.812;19.514;2022-11-23T15:20:00;2.50;99.90
41427;DHT22;27171;51.812;19.514;2022-11-23T15:23:02;2.50;99.90
41427;DHT22;27171;51.812;19.514;2022-11-23T15:26:10;2.50;99.90
41427;DHT22;27171;51.812;19.514;2022-11-23T15:29:30;2.50;99.90
41427;DHT22;27171;51.812;19.514;2022-11-23T15:32:32;2.50;99.90
41427;DHT22;27171;51.812;19.514;2022-11-23T15:35:35;2.50;99.90
41427;DHT22;27171;51.812;19.514;2022-11-23T15:38:37;2.50;99.90
41427;DHT22;27171;51.812;19.514;2022-11-23T15:41:39;2.40;99.90
41427;DHT22;27171;51.812;19.514;2022-11-23T15:44:40;2.40;99.90
41427;DHT22;27171;51.812;19.514;2022-11-23T15:47:41;2.40;99.90
41427;DHT22;27171;51.812;19.514;2022-11-23T15:50:56;2.40;99.90
41427;DHT22;27171;51.812;19.514;2022-11-23T15:53:59;2.30;99.90
41427;DHT22;27171;51.812;19.514;2022-11-23T15:57:01;2.30;99.90
41427;DHT22;27171;51.812;19.514;2022-11-23T16:00:04;2.30;99.90
41427;DHT22;27171;51.812;19.514;2022-11-23T16:06:41;2.30;99.90
41427;DHT22;27171;51.812;19.514;2022-11-23T16:10:02;2.30;99.90
41427;DHT22;27171;51.812;19.514;2022-11-23T16:13:05;2.30;99.90
41427;DHT22;27171;51.812;19.514;2022-11-23T16:16:22;2.20;99.90
41427;DHT22;27171;51.812;19.514;2022-11-23T16:19:31;2.20;99.90
41427;DHT22;27171;51.812;19.514;2022-11-23T16:22:34;2.20;99.90
41427;DHT22;27171;51.812;19.514;2022-11-23T16:25:36;2.20;99.90
41427;DHT22;27171;51.812;19.514;2022-11-23T16:28:37;2.10;99.90
41427;DHT22;27171;51.812;19.514;2022-11-23T16:31:40;2.10;99.90
41427;DHT22;27171;51.812;19.514;2022-11-23T16:34:41;2.10;99.90
41427;DHT22;27171;51.812;19.514;2022-11-23T16:37:42;2.20;99.90
41427;DHT22;27171;51.812;19.514;2022-11-23T16:40:43;2.20;99.90
41427;DHT22;27171;51.812;19.514;2022-11-23T16:43:44;2.20;99.90
41427;DHT22;27171;51.812;19.514;2022-11-23T16:46:47;2.10;99.90
41427;DHT22;27171;51.812;19.514;2022-11-23T16:49:48;2.10;99.90
41427;DHT22;27171;51.812;19.514;2022-11-23T16:52:50;2.10;99.90
41427;DHT22;27171;51.812;19.514;2022-11-23T16:55:53;2.10;99.90
41427;DHT22;27171;51.812;19.514;2022-11-23T16:58:55;2.10;99.90
41427;DHT22;27171;51.812;19.514;2022-11-23T17:01:56;2.10;99.90
41427;DHT22;27171;51.812;19.514;2022-11-23T17:04:57;2.10;99.90
41427;DHT22;27171;51.812;19.514;2022-11-23T17:07:58;2.00;99.90
41427;DHT22;27171;51.812;19.514;2022-11-23T17:10:59;2.10;99.90
41427;DHT22;27171;51.812;19.514;2022-11-23T17:14:00;2.00;99.90
41427;DHT22;27171;51.812;19.514;2022-11-23T17:17:01;2.00;99.90
41427;DHT22;27171;51.812;19.514;2022-11-23T17:20:03;2.00;99.90
41427;DHT22;27171;51.812;19.514;2022-11-23T17:23:04;2.00;99.90
41427;DHT22;27171;51.812;19.514;2022-11-23T17:26:20;2.00;99.90
41427;DHT22;27171;51.812;19.514;2022-11-23T17:29:23;2.00;99.90
41427;DHT22;27171;51.812;19.514;2022-11-23T17:32:24;2.00;99.90
41427;DHT22;27171;51.812;19.514;2022-11-23T17:35:25;2.00;99.90
41427;DHT22;27171;51.812;19.514;2022-11-23T17:38:27;1.90;99.90
41427;DHT22;27171;51.812;19.514;2022-11-23T17:41:28;1.90;99.90
41427;DHT22;27171;51.812;19.514;2022-11-23T17:44:29;1.90;99.90
41427;DHT22;27171;51.812;19.514;2022-11-23T17:47:30;1.90;99.90
41427;DHT22;27171;51.812;19.514;2022-11-23T17:50:31;1.90;99.90
41427;DHT22;27171;51.812;19.514;2022-11-23T17:53:32;1.90;99.90
41427;DHT22;27171;51.812;19.514;2022-11-23T17:56:33;1.80;99.90
41427;DHT22;27171;51.812;19.514;2022-11-23T17:59:35;1.80;99.90
41427;DHT22;27171;51.812;19.514;2022-11-23T18:02:36;1.80;99.90
41427;DHT22;27171;51.812;19.514;2022-11-23T18:05:37;1.80;99.90
41427;DHT22;27171;51.812;19.514;2022-11-23T18:08:38;1.80;99.90
41427;DHT22;27171;51.812;19.514;2022-11-23T18:11:39;1.80;99.90
41427;DHT22;27171;51.812;19.514;2022-11-23T18:14:40;1.80;99.90
41427;DHT22;27171;51.812;19.514;2022-11-23T18:17:41;1.80;99.90
41427;DHT22;27171;51.812;19.514;2022-11-23T18:20:42;1.80;99.90
41427;DHT22;27171;51.812;19.514;2022-11-23T18:23:44;1.70;99.90
41427;DHT22;27171;51.812;19.514;2022-11-23T18:26:45;1.70;99.90
41427;DHT22;27171;51.812;19.514;2022-11-23T18:29:46;1.80;99.90
41427;DHT22;27171;51.812;19.514;2022-11-23T18:32:47;1.80;99.90
41427;DHT22;27171;51.812;19.514;2022-11-23T18:35:48;1.80;99.90
41427;DHT22;27171;51.812;19.514;2022-11-23T18:38:49;1.80;99.90
41427;DHT22;27171;51.812;19.514;2022-11-23T18:41:50;1.80;99.90
41427;DHT22;27171;51.812;19.514;2022-11-23T18:44:51;1.80;99.90
41427;DHT22;27171;51.812;19.514;2022-11-23T18:47:52;1.80;99.90
41427;DHT22;27171;51.812;19.514;2022-11-23T18:50:53;1.80;99.90
41427;DHT22;27171;51.812;19.514;2022-11-23T18:53:54;1.80;99.90
41427;DHT22;27171;51.812;19.514;2022-11-23T18:56:56;1.80;99.90
41427;DHT22;27171;51.812;19.514;2022-11-23T18:59:57;1.80;99.90
41427;DHT22;27171;51.812;19.514;2022-11-23T19:03:00;1.80;99.90
41427;DHT22;27171;51.812;19.514;2022-11-23T19:06:03;1.80;99.90
41427;DHT22;27171;51.812;19.514;2022-11-23T19:09:04;1.80;99.90
41427;DHT22;27171;51.812;19.514;2022-11-23T19:12:06;1.80;99.90
41427;DHT22;27171;51.812;19.514;2022-11-23T19:15:07;1.80;99.90
41427;DHT22;27171;51.812;19.514;2022-11-23T19:18:08;1.80;99.90
41427;DHT22;27171;51.812;19.514;2022-11-23T19:21:13;1.70;99.90
41427;DHT22;27171;51.812;19.514;2022-11-23T19:24:15;1.70;99.90
41427;DHT22;27171;51.812;19.514;2022-11-23T19:27:16;1.70;99.90
41427;DHT22;27171;51.812;19.514;2022-11-23T19:30:17;1.70;99.90
41427;DHT22;27171;51.812;19.514;2022-11-23T19:33:18;1.70;99.90
41427;DHT22;27171;51.812;19.514;2022-11-23T19:36:19;1.70;99.90
41427;DHT22;27171;51.812;19.514;2022-11-23T19:39:21;1.70;99.90
41427;DHT22;27171;51.812;19.514;2022-11-23T19:42:22;1.70;99.90
41427;DHT22;27171;51.812;19.514;2022-11-23T19:45:23;1.60;99.90
41427;DHT22;27171;51.812;19.514;2022-11-23T19:48:25;1.60;99.90
41427;DHT22;27171;51.812;19.514;2022-11-23T19:51:26;1.60;99.90
41427;DHT22;27171;51.812;19.514;2022-11-23T19:54:28;1.60;99.90
41427;DHT22;27171;51.812;19.514;2022-11-23T19:57:29;1.60;99.90
41427;DHT22;27171;51.812;19.514;2022-11-23T20:00:31;1.60;99.90
41427;DHT22;27171;51.812;19.514;2022-11-23T20:03:35;1.50;99.90
41427;DHT22;27171;51.812;19.514;2022-11-23T20:06:38;1.50;99.90
41427;DHT22;27171;51.812;19.514;2022-11-23T20:09:40;1.50;99.90
41427;DHT22;27171;51.812;19.514;2022-11-23T20:12:41;1.60;99.90
41427;DHT22;27171;51.812;19.514;2022-11-23T20:15:42;1.50;99.90
41427;DHT22;27171;51.812;19.514;2022-11-23T20:18:44;1.60;99.90
41427;DHT22;27171;51.812;19.514;2022-11-23T20:21:46;1.50;99.90
41427;DHT22;27171;51.812;19.514;2022-11-23T20:24:47;1.60;99.90
41427;DHT22;27171;51.812;19.514;2022-11-23T20:27:48;1.60;99.90
41427;DHT22;27171;51.812;19.514;2022-11-23T20:30:49;1.60;99.90
41427;DHT22;27171;51.812;19.514;2022-11-23T20:33:51;1.60;99.90
41427;DHT22;27171;51.812;19.514;2022-11-23T20:36:53;1.60;99.90
41427;DHT22;27171;51.812;19.514;2022-11-23T20:39:54;1.50;99.90
41427;DHT22;27171;51.812;19.514;2022-11-23T20:42:55;1.50;99.90
41427;DHT22;27171;51.812;19.514;2022-11-23T20:45:57;1.50;99.90
41427;DHT22;27171;51.812;19.514;2022-11-23T20:48:58;1.50;99.90
41427;DHT22;27171;51.812;19.514;2022-11-23T20:51:59;1.50;99.90
41427;DHT22;27171;51.812;19.514;2022-11-23T20:55:01;1.50;99.90
41427;DHT22;27171;51.812;19.514;2022-11-23T20:58:01;1.50;99.90
41427;DHT22;27171;51.812;19.514;2022-11-23T21:01:04;1.50;99.90
41427;DHT22;27171;51.812;19.514;2022-11-23T21:04:05;1.50;99.90
41427;DHT22;27171;51.812;19.514;2022-11-23T21:07:06;1.50;99.90
41427;DHT22;27171;51.812;19.514;2022-11-23T21:10:07;1.50;99.90
41427;DHT22;27171;51.812;19.514;2022-11-23T21:13:15;1.40;99.90
41427;DHT22;27171;51.812;19.514;2022-11-23T21:16:16;1.40;99.90
41427;DHT22;27171;51.812;19.514;2022-11-23T21:19:19;1.40;99.90
41427;DHT22;27171;51.812;19.514;2022-11-23T21:22:20;1.40;99.90
41427;DHT22;27171;51.812;19.514;2022-11-23T21:25:21;1.40;99.90
41427;DHT22;27171;51.812;19.514;2022-11-23T21:28:22;1.40;99.90
41427;DHT22;27171;51.812;19.514;2022-11-23T21:31:23;1.40;99.90